Notice: Undefined index: language in /home/spanairv/public_html/vam/index.php on line 25
Spanair Virtual

 INFORMACIÓN METAR y TAF
METAR FOR LIEE
ADDS - METARS form results

(2100 UTC 26 June 2019)
Data provider http://aviationweather.gov/metar/data/
 
METAR text: LIEE 262050Z 16004KT CAVOK 26/19 Q1019
Conditions at: LIEE (CAGLIARI/ELMAS(A, IT) observed 2050 UTC 26 June 2019
Temperature: 26.0°C (79°F)
Dewpoint: 19.0°C (66°F) [RH = 65%]
Pressure (altimeter): 30.09 inches Hg (1019.0 mb)
Winds: from the SSE (160 degrees) at 5 MPH (4 knots; 2.1 m/s)
Visibility: 6 or more miles (10+ km)
Ceiling: ceiling and visibility are OK
Clouds: unknown
Weather: no significant weather observed at this time

METAR text: LIEE 262020Z 14005KT CAVOK 27/19 Q1019
Conditions at: LIEE (CAGLIARI/ELMAS(A, IT) observed 2020 UTC 26 June 2019
Temperature: 27.0°C (81°F)
Dewpoint: 19.0°C (66°F) [RH = 62%]
Pressure (altimeter): 30.09 inches Hg (1019.0 mb)
Winds: from the SE (140 degrees) at 6 MPH (5 knots; 2.6 m/s)
Visibility: 6 or more miles (10+ km)
Ceiling: ceiling and visibility are OK
Clouds: unknown
Weather: no significant weather observed at this time

Forecast for: LIEE (CAGLIARI/ELMAS(A, IT)
Text: TAF LIEE 261700Z 2618/2718 VRB04KT CAVOK
Forecast period: 1800 UTC 26 June 2019 to 1000 UTC 27 June 2019
Forecast type: FROM: standard forecast or significant change
Winds: variable direction winds at 5 MPH (4 knots; 2.1 m/s)
Visibility: 6 or more miles 10+ km)
Ceiling: unknown
Clouds: missing
Weather: NSW  (no significant weather)
Text: BECMG 2710/2712 16012KT
Forecast period: 1000 to 1800 UTC 27 June 2019
Forecast type: BECOMING: Conditions expected to become as follows by 1200 UTC 27 June 2019
Winds: from the SSE (160 degrees) at 14 MPH (12 knots; 6.2 m/s)
Visibility: 6 or more miles 10+ km)
Ceiling: unknown
Clouds: missing
Weather: NSW  (no significant weather)

 MAPA DE AEROPUERTO

 INFORMACIÓN DE PISTA
Pista 14 Longitud 9196 ft Ancho 148 ft
Elevación 9 ft Umbral desplazado 0 ft Rumbo de pista 138
Pista 32 Longitud 9196 ft Ancho 148 ft
Elevación 4 ft Umbral desplazado 0 ft Rumbo de pista 318

 FRECUANCIAS DEL AEROPUERTO
Tipo APP Nombre CAGLIARI A Frecuencia 118.75 MHZ
Tipo GND Nombre Elmas GND Frecuencia 125.425 MHZ
Tipo MISC Nombre SAR Frecuencia 123.1 MHZ
Tipo TWR Nombre TWR Frecuencia 120.6 MHZ

 RADIO AYUDAS DEL AEROPUERTO
Tipo VOR-DME Nombre Cagliari Frecuencia 113400 KHZ
Tipo NDB Nombre Cagliari Frecuencia 371 KHZ





VAM [v2.6.2]

Normativa | Spanair Virtual © 2017 | Customized by JZ © 2017 for Spanair Virtual